sensor_id;sensor_type;location;lat;lon;timestamp;pressure;altitude;pressure_sealevel;temperature;humidity
61674;BME280;47573;43.832;5.974;2023-06-14T00:02:05;94660.06;;;27.81;75.31
61674;BME280;47573;43.832;5.974;2023-06-14T00:08:46;94652.38;;;27.83;75.02
61674;BME280;47573;43.832;5.974;2023-06-14T00:15:28;94644.72;;;27.80;75.14
61674;BME280;47573;43.832;5.974;2023-06-14T00:22:08;94631.53;;;27.82;75.14
61674;BME280;47573;43.832;5.974;2023-06-14T00:28:49;94611.00;;;27.79;75.23
61674;BME280;47573;43.832;5.974;2023-06-14T00:35:31;94605.91;;;27.92;75.00
61674;BME280;47573;43.832;5.974;2023-06-14T00:42:23;94598.50;;;27.92;74.82
61674;BME280;47573;43.832;5.974;2023-06-14T00:49:04;94608.97;;;27.90;74.88
61674;BME280;47573;43.832;5.974;2023-06-14T00:55:46;94599.38;;;27.88;74.87
61674;BME280;47573;43.832;5.974;2023-06-14T01:02:26;94604.34;;;27.85;74.93
61674;BME280;47573;43.832;5.974;2023-06-14T01:09:15;94606.56;;;27.83;74.95
61674;BME280;47573;43.832;5.974;2023-06-14T01:16:00;94604.91;;;27.82;75.00
61674;BME280;47573;43.832;5.974;2023-06-14T01:22:51;94611.78;;;27.80;75.06
61674;BME280;47573;43.832;5.974;2023-06-14T01:29:32;94607.72;;;27.77;75.13
61674;BME280;47573;43.832;5.974;2023-06-14T01:36:13;94606.91;;;27.77;74.99
61674;BME280;47573;43.832;5.974;2023-06-14T01:42:56;94601.97;;;27.74;75.20
61674;BME280;47573;43.832;5.974;2023-06-14T01:49:38;94607.47;;;27.74;75.13
61674;BME280;47573;43.832;5.974;2023-06-14T01:56:18;94603.63;;;27.75;74.98
61674;BME280;47573;43.832;5.974;2023-06-14T02:03:01;94598.72;;;27.72;75.20
61674;BME280;47573;43.832;5.974;2023-06-14T02:09:41;94601.44;;;27.72;75.11
61674;BME280;47573;43.832;5.974;2023-06-14T02:16:22;94598.47;;;27.68;75.18
61674;BME280;47573;43.832;5.974;2023-06-14T02:23:04;94603.13;;;27.68;75.17
61674;BME280;47573;43.832;5.974;2023-06-14T02:29:44;94587.28;;;27.65;75.09
61674;BME280;47573;43.832;5.974;2023-06-14T02:36:25;94595.50;;;27.65;75.04
61674;BME280;47573;43.832;5.974;2023-06-14T02:43:06;94601.25;;;27.63;75.05
61674;BME280;47573;43.832;5.974;2023-06-14T02:49:47;94602.38;;;27.62;75.12
61674;BME280;47573;43.832;5.974;2023-06-14T02:56:27;94604.91;;;27.59;75.24
61674;BME280;47573;43.832;5.974;2023-06-14T03:03:09;94612.00;;;27.60;75.22
61674;BME280;47573;43.832;5.974;2023-06-14T03:09:50;94621.34;;;27.59;75.14
61674;BME280;47573;43.832;5.974;2023-06-14T03:16:30;94623.56;;;27.57;75.18
61674;BME280;47573;43.832;5.974;2023-06-14T03:23:12;94608.50;;;27.54;75.31
61674;BME280;47573;43.832;5.974;2023-06-14T03:29:52;94614.81;;;27.55;75.25
61674;BME280;47573;43.832;5.974;2023-06-14T03:36:33;94607.69;;;27.54;75.13
61674;BME280;47573;43.832;5.974;2023-06-14T03:43:15;94597.28;;;27.51;75.50
61674;BME280;47573;43.832;5.974;2023-06-14T03:49:55;94600.00;;;27.51;75.24
61674;BME280;47573;43.832;5.974;2023-06-14T03:56:36;94604.41;;;27.52;75.14
61674;BME280;47573;43.832;5.974;2023-06-14T04:03:18;94608.00;;;27.47;75.38
61674;BME280;47573;43.832;5.974;2023-06-14T04:09:58;94608.84;;;27.48;75.49
61674;BME280;47573;43.832;5.974;2023-06-14T04:16:39;94618.16;;;27.47;75.43
61674;BME280;47573;43.832;5.974;2023-06-14T04:23:20;94611.03;;;27.46;75.46
61674;BME280;47573;43.832;5.974;2023-06-14T04:30:01;94620.34;;;27.45;75.50
61674;BME280;47573;43.832;5.974;2023-06-14T04:36:42;94632.97;;;27.46;75.28
61674;BME280;47573;43.832;5.974;2023-06-14T04:43:24;94633.53;;;27.43;75.63
61674;BME280;47573;43.832;5.974;2023-06-14T04:50:05;94629.72;;;27.44;75.55
61674;BME280;47573;43.832;5.974;2023-06-14T04:56:46;94642.22;;;26.77;75.64
61674;BME280;47573;43.832;5.974;2023-06-14T05:03:28;94641.78;;;26.50;76.56
61674;BME280;47573;43.832;5.974;2023-06-14T05:10:09;94647.38;;;26.30;77.47
61674;BME280;47573;43.832;5.974;2023-06-14T05:16:49;94656.69;;;26.19;77.67
61674;BME280;47573;43.832;5.974;2023-06-14T05:23:31;94647.41;;;26.15;78.04
61674;BME280;47573;43.832;5.974;2023-06-14T05:30:13;94644.97;;;26.13;79.54
61674;BME280;47573;43.832;5.974;2023-06-14T05:36:53;94647.69;;;26.03;79.59
61674;BME280;47573;43.832;5.974;2023-06-14T05:43:35;94652.09;;;26.09;79.94
61674;BME280;47573;43.832;5.974;2023-06-14T05:50:15;94648.50;;;26.14;81.20
61674;BME280;47573;43.832;5.974;2023-06-14T05:56:56;94641.41;;;26.03;82.31
61674;BME280;47573;43.832;5.974;2023-06-14T06:03:38;94650.66;;;26.22;82.17
61674;BME280;47573;43.832;5.974;2023-06-14T06:10:18;94653.94;;;26.24;81.63
61674;BME280;47573;43.832;5.974;2023-06-14T06:16:59;94658.91;;;26.17;82.16
61674;BME280;47573;43.832;5.974;2023-06-14T06:23:40;94661.00;;;26.35;81.85
61674;BME280;47573;43.832;5.974;2023-06-14T06:30:21;94655.00;;;26.38;81.42
61674;BME280;47573;43.832;5.974;2023-06-14T06:37:02;94660.91;;;26.55;80.95
61674;BME280;47573;43.832;5.974;2023-06-14T06:43:44;94670.44;;;26.68;80.37
61674;BME280;47573;43.832;5.974;2023-06-14T06:50:24;94675.09;;;26.77;80.14
61674;BME280;47573;43.832;5.974;2023-06-14T06:57:05;94675.63;;;26.74;80.22
61674;BME280;47573;43.832;5.974;2023-06-14T07:03:47;94677.28;;;26.70;79.52
61674;BME280;47573;43.832;5.974;2023-06-14T07:10:28;94671.56;;;26.62;79.41
61674;BME280;47573;43.832;5.974;2023-06-14T07:17:08;94687.19;;;26.61;78.91
61674;BME280;47573;43.832;5.974;2023-06-14T07:23:50;94680.06;;;26.60;78.35
61674;BME280;47573;43.832;5.974;2023-06-14T07:30:31;94678.94;;;26.71;78.44
61674;BME280;47573;43.832;5.974;2023-06-14T07:37:11;94684.41;;;26.76;78.74
61674;BME280;47573;43.832;5.974;2023-06-14T07:43:53;94690.41;;;26.83;78.95
61674;BME280;47573;43.832;5.974;2023-06-14T07:50:33;94685.44;;;26.90;79.01
61674;BME280;47573;43.832;5.974;2023-06-14T07:57:14;94690.34;;;26.93;79.12
61674;BME280;47573;43.832;5.974;2023-06-14T08:03:56;94700.69;;;27.06;80.72
61674;BME280;47573;43.832;5.974;2023-06-14T08:10:36;94702.00;;;27.14;77.56
61674;BME280;47573;43.832;5.974;2023-06-14T08:17:17;94693.84;;;27.04;77.05
61674;BME280;47573;43.832;5.974;2023-06-14T08:23:59;94694.69;;;26.99;75.61
61674;BME280;47573;43.832;5.974;2023-06-14T08:30:39;94696.94;;;26.92;75.95
61674;BME280;47573;43.832;5.974;2023-06-14T08:37:22;94701.81;;;27.00;74.49
61674;BME280;47573;43.832;5.974;2023-06-14T08:44:03;94711.81;;;27.20;75.18
61674;BME280;47573;43.832;5.974;2023-06-14T08:50:44;94712.00;;;27.34;74.68
61674;BME280;47573;43.832;5.974;2023-06-14T08:57:26;94711.13;;;27.43;74.42
61674;BME280;47573;43.832;5.974;2023-06-14T09:04:08;94720.72;;;27.46;74.31
61674;BME280;47573;43.832;5.974;2023-06-14T09:10:48;94715.19;;;27.51;74.11
61674;BME280;47573;43.832;5.974;2023-06-14T09:17:29;94718.19;;;27.54;73.97
61674;BME280;47573;43.832;5.974;2023-06-14T09:24:14;94724.75;;;27.58;73.81
61674;BME280;47573;43.832;5.974;2023-06-14T09:30:55;94719.50;;;27.62;73.66
61674;BME280;47573;43.832;5.974;2023-06-14T09:37:35;94724.13;;;27.66;73.58
61674;BME280;47573;43.832;5.974;2023-06-14T09:44:17;94713.97;;;27.67;73.62
61674;BME280;47573;43.832;5.974;2023-06-14T09:50:59;94724.41;;;27.65;73.59
61674;BME280;47573;43.832;5.974;2023-06-14T09:57:41;94711.13;;;27.77;73.27
61674;BME280;47573;43.832;5.974;2023-06-14T10:04:24;94703.44;;;27.79;73.11
61674;BME280;47573;43.832;5.974;2023-06-14T10:11:05;94714.34;;;27.84;73.08
61674;BME280;47573;43.832;5.974;2023-06-14T10:17:50;94709.44;;;27.86;73.01
61674;BME280;47573;43.832;5.974;2023-06-14T10:24:35;94703.34;;;27.89;72.86
61674;BME280;47573;43.832;5.974;2023-06-14T10:31:18;94698.91;;;27.93;72.68
61674;BME280;47573;43.832;5.974;2023-06-14T10:38:07;94700.53;;;27.99;72.50
61674;BME280;47573;43.832;5.974;2023-06-14T10:44:50;94688.47;;;28.00;72.54
61674;BME280;47573;43.832;5.974;2023-06-14T10:51:38;94689.50;;;28.04;72.32
61674;BME280;47573;43.832;5.974;2023-06-14T10:58:19;94686.47;;;28.06;72.30
61674;BME280;47573;43.832;5.974;2023-06-14T11:05:03;94683.44;;;28.07;72.30
61674;BME280;47573;43.832;5.974;2023-06-14T11:11:45;94673.28;;;28.08;72.27
61674;BME280;47573;43.832;5.974;2023-06-14T11:18:28;94670.22;;;28.09;72.38
61674;BME280;47573;43.832;5.974;2023-06-14T11:25:12;94663.88;;;28.14;72.22
61674;BME280;47573;43.832;5.974;2023-06-14T11:31:52;94666.84;;;28.17;72.22
61674;BME280;47573;43.832;5.974;2023-06-14T11:38:35;94655.28;;;28.20;72.20
61674;BME280;47573;43.832;5.974;2023-06-14T11:45:18;94661.00;;;28.24;72.34
61674;BME280;47573;43.832;5.974;2023-06-14T11:51:58;94660.22;;;28.23;72.33
61674;BME280;47573;43.832;5.974;2023-06-14T11:58:39;94662.06;;;28.28;72.46
61674;BME280;47573;43.832;5.974;2023-06-14T12:05:22;94658.44;;;28.32;72.36
61674;BME280;47573;43.832;5.974;2023-06-14T12:12:03;94639.75;;;28.34;72.39
61674;BME280;47573;43.832;5.974;2023-06-14T12:18:44;94633.69;;;28.37;72.47
61674;BME280;47573;43.832;5.974;2023-06-14T12:25:29;94625.97;;;28.39;72.66
61674;BME280;47573;43.832;5.974;2023-06-14T12:32:10;94629.25;;;28.41;72.81
61674;BME280;47573;43.832;5.974;2023-06-14T12:38:51;94630.28;;;28.45;72.61
61674;BME280;47573;43.832;5.974;2023-06-14T12:45:33;94630.28;;;28.45;73.08
61674;BME280;47573;43.832;5.974;2023-06-14T12:52:13;94630.22;;;28.50;72.80
61674;BME280;47573;43.832;5.974;2023-06-14T12:58:54;94626.06;;;28.53;72.87
61674;BME280;47573;43.832;5.974;2023-06-14T13:05:36;94635.13;;;28.53;72.75
61674;BME280;47573;43.832;5.974;2023-06-14T13:12:17;94699.38;;;28.57;72.99
61674;BME280;47573;43.832;5.974;2023-06-14T13:18:57;94722.47;;;28.56;72.88
61674;BME280;47573;43.832;5.974;2023-06-14T13:25:39;94744.22;;;28.48;73.04
61674;BME280;47573;43.832;5.974;2023-06-14T13:32:20;94742.84;;;28.50;73.08
61674;BME280;47573;43.832;5.974;2023-06-14T13:39:01;94750.53;;;28.48;73.21
61674;BME280;47573;43.832;5.974;2023-06-14T13:45:43;94739.66;;;28.38;73.59
61674;BME280;47573;43.832;5.974;2023-06-14T13:52:24;94745.84;;;28.49;73.12
61674;BME280;47573;43.832;5.974;2023-06-14T13:59:05;94719.78;;;28.46;73.35
61674;BME280;47573;43.832;5.974;2023-06-14T14:05:46;94702.84;;;28.39;73.92
61674;BME280;47573;43.832;5.974;2023-06-14T14:12:27;94689.00;;;28.49;73.45
61674;BME280;47573;43.832;5.974;2023-06-14T14:19:07;94710.44;;;28.47;73.90
61674;BME280;47573;43.832;5.974;2023-06-14T14:25:49;94728.63;;;28.43;74.13
61674;BME280;47573;43.832;5.974;2023-06-14T14:32:30;94747.25;;;28.46;74.38
61674;BME280;47573;43.832;5.974;2023-06-14T14:39:10;94774.72;;;28.46;74.50
61674;BME280;47573;43.832;5.974;2023-06-14T14:45:52;94783.03;;;28.41;74.88
61674;BME280;47573;43.832;5.974;2023-06-14T14:52:32;94753.34;;;28.43;75.07
61674;BME280;47573;43.832;5.974;2023-06-14T14:59:13;94728.56;;;28.25;75.38
61674;BME280;47573;43.832;5.974;2023-06-14T15:05:55;94705.91;;;28.38;74.92
61674;BME280;47573;43.832;5.974;2023-06-14T15:12:35;94723.25;;;28.33;75.16
61674;BME280;47573;43.832;5.974;2023-06-14T15:19:17;94765.53;;;28.32;75.46
61674;BME280;47573;43.832;5.974;2023-06-14T15:25:59;94746.31;;;28.32;75.17
61674;BME280;47573;43.832;5.974;2023-06-14T15:32:40;94740.81;;;28.32;75.42
61674;BME280;47573;43.832;5.974;2023-06-14T15:39:20;94746.31;;;28.32;75.20
61674;BME280;47573;43.832;5.974;2023-06-14T15:46:02;94766.38;;;28.28;75.64
61674;BME280;47573;43.832;5.974;2023-06-14T15:52:42;94755.19;;;28.24;75.75
61674;BME280;47573;43.832;5.974;2023-06-14T15:59:23;94766.16;;;28.24;75.78
61674;BME280;47573;43.832;5.974;2023-06-14T16:06:05;94756.22;;;28.28;75.61
61674;BME280;47573;43.832;5.974;2023-06-14T16:12:45;94782.63;;;28.24;75.78
61674;BME280;47573;43.832;5.974;2023-06-14T16:19:26;94801.81;;;28.29;75.66
61674;BME280;47573;43.832;5.974;2023-06-14T16:26:10;94822.72;;;28.25;75.79
61674;BME280;47573;43.832;5.974;2023-06-14T16:32:51;94832.03;;;28.24;75.96
61674;BME280;47573;43.832;5.974;2023-06-14T16:39:31;94861.16;;;28.25;75.99
61674;BME280;47573;43.832;5.974;2023-06-14T16:46:14;94869.41;;;28.20;76.39
61674;BME280;47573;43.832;5.974;2023-06-14T16:52:54;94869.41;;;28.20;76.38
61674;BME280;47573;43.832;5.974;2023-06-14T16:59:34;94875.41;;;28.27;76.05
61674;BME280;47573;43.832;5.974;2023-06-14T17:06:16;94863.84;;;28.30;76.07
61674;BME280;47573;43.832;5.974;2023-06-14T17:12:57;94835.44;;;28.11;74.06
61674;BME280;47573;43.832;5.974;2023-06-14T17:19:37;94837.69;;;27.06;74.38
61674;BME280;47573;43.832;5.974;2023-06-14T17:26:19;94819.09;;;26.98;76.02
61674;BME280;47573;43.832;5.974;2023-06-14T17:33:00;94822.97;;;26.82;72.12
61674;BME280;47573;43.832;5.974;2023-06-14T17:39:40;94826.78;;;26.86;73.71
61674;BME280;47573;43.832;5.974;2023-06-14T17:46:22;94836.38;;;26.89;75.41
61674;BME280;47573;43.832;5.974;2023-06-14T17:53:03;94835.03;;;26.81;75.47
61674;BME280;47573;43.832;5.974;2023-06-14T17:59:43;94846.81;;;26.82;75.17
61674;BME280;47573;43.832;5.974;2023-06-14T18:06:25;94865.09;;;27.01;74.42
61674;BME280;47573;43.832;5.974;2023-06-14T18:13:06;94858.56;;;26.82;75.18
61674;BME280;47573;43.832;5.974;2023-06-14T18:19:47;94864.91;;;26.78;75.20
61674;BME280;47573;43.832;5.974;2023-06-14T18:26:28;94871.19;;;26.78;75.37
61674;BME280;47573;43.832;5.974;2023-06-14T18:33:09;94872.56;;;26.61;76.72
61674;BME280;47573;43.832;5.974;2023-06-14T18:39:49;94873.69;;;26.45;78.05
61674;BME280;47573;43.832;5.974;2023-06-14T18:46:31;94876.19;;;26.26;78.84
61674;BME280;47573;43.832;5.974;2023-06-14T18:53:12;94872.88;;;26.24;78.48
61674;BME280;47573;43.832;5.974;2023-06-14T18:59:52;94880.25;;;26.49;76.71
61674;BME280;47573;43.832;5.974;2023-06-14T19:06:35;94873.97;;;26.23;76.61
61674;BME280;47573;43.832;5.974;2023-06-14T19:13:16;94873.41;;;26.01;76.82
61674;BME280;47573;43.832;5.974;2023-06-14T19:19:56;94855.91;;;25.97;77.00
61674;BME280;47573;43.832;5.974;2023-06-14T19:26:38;94865.44;;;25.89;76.92
61674;BME280;47573;43.832;5.974;2023-06-14T19:33:19;94874.44;;;25.75;77.09
61674;BME280;47573;43.832;5.974;2023-06-14T19:39:59;94891.91;;;25.53;78.22
61674;BME280;47573;43.832;5.974;2023-06-14T19:46:41;94915.41;;;25.49;78.19
61674;BME280;47573;43.832;5.974;2023-06-14T19:53:22;94928.38;;;25.84;77.72
61674;BME280;47573;43.832;5.974;2023-06-14T20:00:02;94926.19;;;26.06;76.92
61674;BME280;47573;43.832;5.974;2023-06-14T20:06:44;94933.09;;;26.09;76.94
61674;BME280;47573;43.832;5.974;2023-06-14T20:13:25;94943.50;;;26.27;77.09
61674;BME280;47573;43.832;5.974;2023-06-14T20:20:06;94944.06;;;26.44;77.00
61674;BME280;47573;43.832;5.974;2023-06-14T20:26:48;94956.63;;;26.55;77.43
61674;BME280;47573;43.832;5.974;2023-06-14T20:33:28;94953.91;;;26.60;77.13
61674;BME280;47573;43.832;5.974;2023-06-14T20:40:18;94940.22;;;26.65;77.18
61674;BME280;47573;43.832;5.974;2023-06-14T20:47:00;94934.19;;;26.68;76.89
61674;BME280;47573;43.832;5.974;2023-06-14T20:53:41;94930.66;;;26.73;76.69
61674;BME280;47573;43.832;5.974;2023-06-14T21:00:21;94935.00;;;26.79;76.90
61674;BME280;47573;43.832;5.974;2023-06-14T21:07:04;94913.91;;;26.84;76.63
61674;BME280;47573;43.832;5.974;2023-06-14T21:13:44;94907.34;;;26.85;76.81
61674;BME280;47573;43.832;5.974;2023-06-14T21:20:25;94898.00;;;26.91;76.70
61674;BME280;47573;43.832;5.974;2023-06-14T21:27:07;94910.63;;;26.87;77.34
61674;BME280;47573;43.832;5.974;2023-06-14T21:33:47;94906.22;;;26.91;77.01
61674;BME280;47573;43.832;5.974;2023-06-14T21:40:28;94906.22;;;26.91;76.96
61674;BME280;47573;43.832;5.974;2023-06-14T21:47:10;94905.94;;;26.93;76.86
61674;BME280;47573;43.832;5.974;2023-06-14T21:53:51;94911.16;;;26.94;76.62
61674;BME280;47573;43.832;5.974;2023-06-14T22:00:32;94918.28;;;26.95;76.70
61674;BME280;47573;43.832;5.974;2023-06-14T22:07:14;94935.81;;;26.94;76.60
61674;BME280;47573;43.832;5.974;2023-06-14T22:13:54;94937.16;;;26.97;76.51
61674;BME280;47573;43.832;5.974;2023-06-14T22:20:35;94925.41;;;26.96;76.21
61674;BME280;47573;43.832;5.974;2023-06-14T22:27:17;94926.53;;;26.90;76.65
61674;BME280;47573;43.832;5.974;2023-06-14T22:33:57;94919.09;;;26.91;76.11
61674;BME280;47573;43.832;5.974;2023-06-14T22:40:38;94918.28;;;26.95;76.26
61674;BME280;47573;43.832;5.974;2023-06-14T22:47:21;94907.59;;;26.94;76.05
61674;BME280;47573;43.832;5.974;2023-06-14T22:54:01;94914.44;;;26.96;75.86
61674;BME280;47573;43.832;5.974;2023-06-14T23:00:42;94914.44;;;26.96;75.80
61674;BME280;47573;43.832;5.974;2023-06-14T23:07:24;94913.88;;;26.99;76.14
61674;BME280;47573;43.832;5.974;2023-06-14T23:14:04;94910.06;;;27.00;76.20
61674;BME280;47573;43.832;5.974;2023-06-14T23:20:45;94902.38;;;27.02;75.96
61674;BME280;47573;43.832;5.974;2023-06-14T23:27:27;94903.47;;;27.06;76.21
61674;BME280;47573;43.832;5.974;2023-06-14T23:34:07;94909.47;;;27.03;76.79
61674;BME280;47573;43.832;5.974;2023-06-14T23:40:48;94901.53;;;27.07;76.65
61674;BME280;47573;43.832;5.974;2023-06-14T23:47:30;94901.25;;;27.03;77.07
61674;BME280;47573;43.832;5.974;2023-06-14T23:54:11;94910.06;;;26.95;75.67
